createdAt,value
2022-12-23T00:04:06.422Z,9.4
2022-12-23T00:06:09.829Z,9.9
2022-12-23T00:10:16.980Z,9.4
2022-12-23T00:12:20.580Z,9.4
2022-12-23T00:14:24.142Z,9.6
2022-12-23T00:16:30.820Z,9.8
2022-12-23T00:20:37.983Z,9.7
2022-12-23T00:23:02.118Z,9.4
2022-12-23T00:25:05.728Z,9.4
2022-12-23T00:27:09.307Z,9.8
2022-12-23T00:29:15.960Z,9.5
2022-12-23T00:31:19.543Z,9.6
2022-12-23T00:35:26.674Z,9.7
2022-12-23T00:37:30.256Z,9.4
2022-12-23T00:39:33.826Z,9.8
2022-12-23T00:41:37.438Z,9.8
2022-12-23T00:47:52.796Z,9.3
2022-12-23T00:49:56.325Z,9.4
2022-12-23T00:51:59.881Z,9.4
2022-12-23T00:54:03.483Z,9.7
2022-12-23T00:56:07.078Z,9.3
2022-12-23T00:58:13.688Z,9.5
2022-12-23T01:00:17.341Z,9.6
2022-12-23T01:02:21.050Z,9.7
2022-12-23T01:04:24.402Z,9.8
2022-12-23T01:06:27.956Z,9.4
2022-12-23T01:08:31.576Z,9.5
2022-12-23T01:10:35.130Z,9.5
2022-12-23T01:12:41.765Z,9.7
2022-12-23T01:14:45.361Z,9.9
2022-12-23T01:16:49.064Z,9.9
2022-12-23T01:17:52.277Z,9.6
2022-12-23T01:19:55.834Z,9.6
2022-12-23T01:21:59.425Z,9.7
2022-12-23T01:24:03.027Z,9.6
2022-12-23T01:26:09.955Z,9.4
2022-12-23T01:28:13.276Z,9.5
2022-12-23T01:30:16.830Z,9.6
2022-12-23T01:32:20.547Z,9.4
2022-12-23T01:34:23.979Z,9.8
2022-12-23T01:36:27.600Z,9.5
2022-12-23T01:40:37.801Z,9.3
2022-12-23T01:42:41.391Z,10
2022-12-23T01:48:52.111Z,9.8
2022-12-23T01:50:55.709Z,9.4
2022-12-23T01:53:03.104Z,9.4
2022-12-23T01:55:05.953Z,9.2
2022-12-23T01:57:09.527Z,9.6
2022-12-23T01:59:13.098Z,9.6
2022-12-23T02:01:16.716Z,9.5
2022-12-23T02:03:20.393Z,9.1
2022-12-23T02:05:23.835Z,9.1
2022-12-23T02:07:27.375Z,9.7
2022-12-23T02:09:34.011Z,9.6
2022-12-23T02:11:37.598Z,9.4
2022-12-23T02:13:41.176Z,9.1
2022-12-23T02:14:44.512Z,9.5
2022-12-23T02:16:48.122Z,9.5
2022-12-23T02:18:51.660Z,9.1
2022-12-23T02:20:55.265Z,9.1
2022-12-23T02:23:01.937Z,9.2
2022-12-23T02:25:05.479Z,9
2022-12-23T02:31:16.276Z,9.3
2022-12-23T02:33:19.814Z,9.2
2022-12-23T02:37:30.048Z,9.1
2022-12-23T02:39:33.624Z,9.6
2022-12-23T02:41:37.190Z,9.1
2022-12-23T02:43:40.777Z,9.1
2022-12-23T02:47:47.977Z,9
2022-12-23T02:51:58.194Z,9.3
2022-12-23T02:54:01.757Z,9.1
2022-12-23T02:56:05.334Z,9.4
2022-12-23T02:58:08.943Z,9.1
2022-12-23T03:00:12.514Z,9.3
2022-12-23T03:02:16.362Z,9.1
2022-12-23T03:04:19.669Z,9.1
2022-12-23T03:06:26.321Z,9.2
2022-12-23T03:08:29.992Z,9
2022-12-23T03:10:33.593Z,8.9
2022-12-23T03:11:36.889Z,8.9
2022-12-23T03:13:40.466Z,9.3
2022-12-23T03:15:44.081Z,8.8
2022-12-23T03:17:47.674Z,8.8
2022-12-23T03:19:54.311Z,8.7
2022-12-23T03:21:57.886Z,9.1
2022-12-23T03:24:01.477Z,8.8
2022-12-23T03:26:05.088Z,8.8
2022-12-23T03:28:08.692Z,9
2022-12-23T03:30:12.269Z,8.9
2022-12-23T03:32:15.802Z,9
2022-12-23T03:34:22.495Z,8.8
2022-12-23T03:36:26.060Z,8.8
2022-12-23T03:38:29.650Z,9
2022-12-23T03:40:33.229Z,8.9
2022-12-23T03:42:36.800Z,8.8
2022-12-23T03:44:40.406Z,9
2022-12-23T03:46:44.109Z,8.8
2022-12-23T03:48:50.664Z,8.8
2022-12-23T03:52:57.817Z,8.9
2022-12-23T03:55:01.464Z,8.5
2022-12-23T04:01:12.269Z,8.6
2022-12-23T04:03:18.831Z,8.8
2022-12-23T04:05:22.465Z,8.7
2022-12-23T04:07:26.057Z,9
2022-12-23T04:09:50.248Z,9
2022-12-23T04:11:53.846Z,8.8
2022-12-23T04:13:57.465Z,8.7
2022-12-23T04:18:07.659Z,9
2022-12-23T04:20:11.327Z,8.9
2022-12-23T04:22:14.893Z,9
2022-12-23T04:24:18.510Z,8.7
2022-12-23T04:28:25.674Z,8.5
2022-12-23T04:30:34.660Z,9.1
2022-12-23T04:32:35.942Z,9
2022-12-23T04:34:39.516Z,8.9
2022-12-23T04:36:43.084Z,8.6
2022-12-23T04:38:46.705Z,8.5
2022-12-23T04:40:50.287Z,8.9
2022-12-23T04:42:53.890Z,8.8
2022-12-23T04:45:00.585Z,8.5
2022-12-23T04:47:04.241Z,8.5
2022-12-23T04:49:07.754Z,8.7
2022-12-23T04:51:11.329Z,8.5
2022-12-23T04:53:14.950Z,8.7
2022-12-23T04:55:18.541Z,8.8
2022-12-23T04:57:22.091Z,8.8
2022-12-23T04:59:28.757Z,8.6
2022-12-23T05:01:32.499Z,8.5
2022-12-23T05:03:35.964Z,8.4
2022-12-23T05:04:39.326Z,8.4
2022-12-23T05:08:46.455Z,8.4
2022-12-23T05:10:50.084Z,8.5
2022-12-23T05:12:56.713Z,8.7
2022-12-23T05:15:00.308Z,8.4
2022-12-23T05:17:07.603Z,8.5
2022-12-23T05:19:07.517Z,8.7
2022-12-23T05:25:18.277Z,8.6
2022-12-23T05:29:28.557Z,8.1
2022-12-23T05:33:35.806Z,8.3
2022-12-23T05:35:39.356Z,8.1
2022-12-23T05:39:46.557Z,8.1
2022-12-23T05:41:53.213Z,8.5
2022-12-23T05:43:56.778Z,8.3
2022-12-23T05:46:00.431Z,8.4
2022-12-23T05:48:04.006Z,8.3
2022-12-23T05:50:07.605Z,8
2022-12-23T05:52:11.215Z,8.1
2022-12-23T05:56:21.496Z,8.4
2022-12-23T06:01:32.021Z,8
2022-12-23T06:03:35.751Z,8.2
2022-12-23T06:05:39.199Z,8.2
2022-12-23T06:07:42.833Z,8.1
2022-12-23T06:09:49.499Z,8.3
2022-12-23T06:11:53.194Z,8.4
2022-12-23T06:13:56.688Z,7.9
2022-12-23T06:16:00.312Z,8.1
2022-12-23T06:18:03.877Z,7.9
2022-12-23T06:20:07.497Z,7.9
2022-12-23T06:24:17.786Z,7.9
2022-12-23T06:26:21.408Z,8.3
2022-12-23T06:30:28.564Z,8.2
2022-12-23T06:32:37.912Z,7.8
2022-12-23T06:34:35.772Z,7.8
2022-12-23T06:36:39.402Z,7.9
2022-12-23T06:38:46.048Z,8.1
2022-12-23T06:40:49.659Z,8.3
2022-12-23T06:42:53.272Z,8.1
2022-12-23T06:44:58.440Z,7.9
2022-12-23T06:53:15.869Z,8
2022-12-23T06:55:19.510Z,8
2022-12-23T06:57:23.112Z,8
2022-12-23T06:58:26.441Z,8
2022-12-23T07:00:30.081Z,8.1
2022-12-23T07:04:37.237Z,7.8
2022-12-23T07:12:54.730Z,8.1
2022-12-23T07:14:58.331Z,7.9
2022-12-23T07:17:02.059Z,7.8
2022-12-23T07:19:05.519Z,7.8
2022-12-23T07:21:21.408Z,7.7
2022-12-23T07:23:15.825Z,7.8
2022-12-23T07:27:23.054Z,8.2
2022-12-23T07:29:26.613Z,7.9
2022-12-23T07:31:30.211Z,7.8
2022-12-23T07:33:33.841Z,7.9
2022-12-23T07:46:00.865Z,7.9
2022-12-23T07:48:02.093Z,7.9
2022-12-23T07:52:12.381Z,8
2022-12-23T07:54:15.992Z,8
2022-12-23T07:56:34.331Z,8
2022-12-23T07:58:37.942Z,8
2022-12-23T08:00:41.567Z,8
2022-12-23T08:02:48.358Z,8
2022-12-23T08:04:51.888Z,8
2022-12-23T08:06:55.429Z,8
2022-12-23T08:08:59.013Z,8
2022-12-23T08:11:02.638Z,7.9
2022-12-23T08:13:06.237Z,8
2022-12-23T08:15:09.826Z,8
2022-12-23T08:17:16.628Z,8
2022-12-23T08:19:20.127Z,8
2022-12-23T08:21:23.729Z,8
2022-12-23T08:27:34.585Z,8
2022-12-23T08:35:52.052Z,8
2022-12-23T08:37:55.997Z,8
2022-12-23T08:39:59.574Z,8
2022-12-23T08:46:13.568Z,8
2022-12-23T08:50:20.673Z,8
2022-12-23T08:51:24.021Z,8
2022-12-23T08:55:31.226Z,8
2022-12-23T08:57:34.845Z,8
2022-12-23T08:59:41.525Z,8
2022-12-23T09:01:45.219Z,8
2022-12-23T09:03:48.805Z,8
2022-12-23T09:05:52.330Z,8
2022-12-23T09:07:55.963Z,8.1
2022-12-23T09:09:59.583Z,8
2022-12-23T09:12:03.143Z,8
2022-12-23T09:14:09.797Z,8.1
2022-12-23T09:16:13.656Z,8.1
2022-12-23T09:18:17.029Z,8.1
2022-12-23T09:20:20.634Z,8.2
2022-12-23T09:22:24.223Z,8.2
2022-12-23T09:24:27.829Z,8.2
2022-12-23T09:28:38.098Z,8.2
2022-12-23T09:30:41.695Z,8.2
2022-12-23T09:32:45.296Z,8.2
2022-12-23T09:34:48.902Z,8.3
2022-12-23T09:36:55.216Z,8.3
2022-12-23T09:38:56.162Z,8.3
2022-12-23T09:43:06.398Z,8.3
2022-12-23T09:45:10.036Z,8.3
2022-12-23T09:47:13.634Z,8.3
2022-12-23T09:48:16.971Z,8.3
2022-12-23T09:50:20.622Z,8.3
2022-12-23T09:52:24.161Z,8.3
2022-12-23T09:54:27.772Z,8.3
2022-12-23T10:00:41.625Z,8.3
2022-12-23T10:02:45.427Z,8.3
2022-12-23T10:04:48.861Z,8.3
2022-12-23T10:06:56.249Z,8.3
2022-12-23T10:08:56.042Z,8.3
2022-12-23T10:11:02.722Z,8.2
2022-12-23T10:13:06.324Z,8.2
2022-12-23T10:15:09.944Z,8.3
2022-12-23T10:17:13.521Z,8.2
2022-12-23T10:19:17.119Z,8.2
2022-12-23T10:23:24.373Z,8.3
2022-12-23T10:25:31.000Z,8.3
2022-12-23T10:27:34.611Z,8.3
2022-12-23T10:29:38.270Z,8.3
2022-12-23T10:31:42.027Z,8.3
2022-12-23T10:33:45.477Z,8.4
2022-12-23T10:35:49.023Z,8.3
2022-12-23T10:37:52.623Z,8.4
2022-12-23T10:39:59.307Z,8.4
2022-12-23T10:42:02.945Z,8.4
2022-12-23T10:44:06.483Z,8.4
2022-12-23T10:45:09.855Z,8.4
2022-12-23T10:47:13.477Z,8.4
2022-12-23T10:49:17.091Z,8.5
2022-12-23T10:55:33.892Z,8.5
2022-12-23T10:57:34.576Z,8.5
2022-12-23T10:59:38.194Z,8.5
2022-12-23T11:01:41.926Z,8.5
2022-12-23T11:03:45.413Z,8.5
2022-12-23T11:05:49.003Z,8.5
2022-12-23T11:07:55.669Z,8.6
2022-12-23T11:09:59.270Z,8.6
2022-12-23T11:12:02.868Z,8.6
2022-12-23T11:14:06.474Z,8.6
2022-12-23T11:16:10.252Z,8.6
2022-12-23T11:18:13.719Z,8.6
2022-12-23T11:20:17.327Z,8.6
2022-12-23T11:22:23.967Z,8.6
2022-12-23T11:24:27.606Z,8.6
2022-12-23T11:28:34.799Z,8.7
2022-12-23T11:30:38.365Z,8.7
2022-12-23T11:34:45.573Z,8.7
2022-12-23T11:38:55.866Z,8.7
2022-12-23T11:43:23.594Z,8.7
2022-12-23T11:45:27.318Z,8.6
2022-12-23T11:47:30.802Z,8.7
2022-12-23T11:49:37.458Z,8.7
2022-12-23T11:51:41.051Z,8.7
2022-12-23T11:53:44.661Z,8.7
2022-12-23T11:55:48.220Z,8.7
2022-12-23T11:57:51.814Z,8.7
2022-12-23T11:59:55.407Z,8.7
2022-12-23T12:01:59.130Z,8.7
2022-12-23T12:04:05.710Z,8.7
2022-12-23T12:06:09.451Z,8.7
2022-12-23T12:08:12.910Z,8.7
2022-12-23T12:10:16.518Z,8.7
2022-12-23T12:14:23.682Z,8.7
2022-12-23T12:16:27.334Z,8.7
2022-12-23T12:18:33.978Z,8.7
2022-12-23T12:20:37.614Z,8.7
2022-12-23T12:22:41.205Z,8.7
2022-12-23T12:24:44.811Z,8.7
2022-12-23T12:28:52.004Z,8.8
2022-12-23T12:30:55.661Z,8.8
2022-12-23T12:33:02.266Z,8.8
2022-12-23T12:35:05.884Z,8.8
2022-12-23T12:38:12.833Z,8.8
2022-12-23T12:40:17.959Z,8.8
2022-12-23T12:42:21.525Z,8.8
2022-12-23T12:44:25.114Z,8.8
2022-12-23T12:46:31.921Z,8.8
2022-12-23T12:58:53.375Z,8.9
2022-12-23T13:03:03.752Z,8.8
2022-12-23T13:05:07.233Z,8.9
2022-12-23T13:07:10.861Z,8.9
2022-12-23T13:09:14.504Z,8.9
2022-12-23T13:15:28.368Z,8.9
2022-12-23T13:17:32.051Z,8.9
2022-12-23T13:19:35.527Z,8.9
2022-12-23T13:21:39.151Z,8.9
2022-12-23T13:25:46.358Z,8.9
2022-12-23T13:27:49.990Z,8.9
2022-12-23T13:29:58.520Z,8.9
2022-12-23T13:32:00.273Z,8.9
2022-12-23T13:34:03.909Z,8.9
2022-12-23T13:35:07.200Z,8.9
2022-12-23T13:37:10.830Z,8.9
2022-12-23T13:39:14.461Z,9
2022-12-23T13:41:18.011Z,9
2022-12-23T13:43:24.690Z,9
2022-12-23T13:45:28.298Z,8.9
2022-12-23T13:47:31.891Z,9
2022-12-23T13:49:35.459Z,9
2022-12-23T13:51:39.075Z,8.9
2022-12-23T13:55:46.257Z,9
2022-12-23T13:57:52.922Z,9
2022-12-23T14:00:03.011Z,8.9
2022-12-23T14:02:00.245Z,8.9
2022-12-23T14:04:03.733Z,8.9
2022-12-23T14:08:10.934Z,8.9
2022-12-23T14:10:14.662Z,8.9
2022-12-23T14:12:21.216Z,8.9
2022-12-23T14:14:24.847Z,8.9
2022-12-23T14:16:28.494Z,8.9
2022-12-23T14:20:35.617Z,8.9
2022-12-23T14:22:39.199Z,8.9
2022-12-23T14:24:42.801Z,8.9
2022-12-23T14:26:49.459Z,8.8
2022-12-23T14:30:56.752Z,8.8
2022-12-23T14:31:59.974Z,8.8
2022-12-23T14:34:03.598Z,8.9
2022-12-23T14:36:07.227Z,8.8
2022-12-23T14:44:24.744Z,8.8
2022-12-23T14:46:28.334Z,8.8
2022-12-23T14:50:35.467Z,8.8
2022-12-23T14:52:44.269Z,8.8
2022-12-23T14:55:06.104Z,8.8
2022-12-23T14:56:49.334Z,8.8
2022-12-23T14:58:52.977Z,8.8
2022-12-23T15:00:56.570Z,8.9
2022-12-23T15:03:00.261Z,8.8
2022-12-23T15:05:03.750Z,8.9
2022-12-23T15:07:07.374Z,8.8
2022-12-23T15:09:14.001Z,8.9
2022-12-23T15:11:17.607Z,8.9
2022-12-23T15:15:24.769Z,8.8
2022-12-23T15:21:35.651Z,8.8
2022-12-23T15:23:42.298Z,8.8
2022-12-23T15:25:45.864Z,8.8
2022-12-23T15:27:49.484Z,8.8
2022-12-23T15:30:08.056Z,8.8
2022-12-23T15:32:11.636Z,8.8
2022-12-23T15:34:17.304Z,8.8
2022-12-23T15:36:22.011Z,8.8
2022-12-23T15:38:25.484Z,8.8
2022-12-23T15:40:29.128Z,8.8
2022-12-23T15:42:32.670Z,8.7
2022-12-23T15:44:36.261Z,8.9
2022-12-23T15:46:39.940Z,9
2022-12-23T15:48:43.474Z,9.1
2022-12-23T15:50:50.118Z,8.8
2022-12-23T15:52:53.742Z,8.9
2022-12-23T15:54:57.310Z,8.7
2022-12-23T15:57:00.964Z,8.7
2022-12-23T15:59:04.498Z,8.4
2022-12-23T16:01:08.114Z,8.4
2022-12-23T16:03:15.869Z,8.7
2022-12-23T16:05:18.382Z,8.5
2022-12-23T16:07:21.959Z,8.7
2022-12-23T16:09:25.539Z,8.8
2022-12-23T16:11:29.121Z,9.1
2022-12-23T16:13:32.703Z,8.5
2022-12-23T16:15:36.315Z,9
2022-12-23T16:17:39.886Z,9
2022-12-23T16:19:46.573Z,8.9
2022-12-23T16:21:50.126Z,9
2022-12-23T16:23:53.694Z,8.9
2022-12-23T16:24:57.028Z,8.4
2022-12-23T16:29:04.227Z,8.5
2022-12-23T16:31:07.848Z,8.6
2022-12-23T16:33:14.464Z,8.4
2022-12-23T16:39:25.199Z,8.6
2022-12-23T16:45:36.011Z,8.6
2022-12-23T16:49:46.220Z,8.4
2022-12-23T16:53:53.388Z,8.7
2022-12-23T16:56:00.504Z,8.8
2022-12-23T17:00:04.190Z,8.8
2022-12-23T17:10:25.205Z,8.9
2022-12-23T17:16:39.089Z,8.5
2022-12-23T17:20:46.198Z,8.8
2022-12-23T17:21:49.544Z,8.8
2022-12-23T17:23:53.183Z,8.8
2022-12-23T17:25:56.743Z,8.8
2022-12-23T17:28:00.371Z,8.5
2022-12-23T17:30:06.978Z,8.8
2022-12-23T17:32:10.658Z,8.5
2022-12-23T17:34:14.141Z,8.5
2022-12-23T17:36:17.802Z,9
2022-12-23T17:38:21.339Z,8.8
2022-12-23T17:40:24.926Z,9.1
2022-12-23T17:42:28.519Z,9.1
2022-12-23T17:44:35.257Z,8.7
2022-12-23T17:48:42.628Z,8.7
2022-12-23T17:50:45.942Z,8.9
2022-12-23T17:54:53.172Z,8.4
2022-12-23T17:56:56.789Z,8.9
2022-12-23T17:59:03.443Z,9
2022-12-23T18:01:07.102Z,8.5
2022-12-23T18:03:10.616Z,8.8
2022-12-23T18:05:14.203Z,9
2022-12-23T18:07:17.775Z,8.5
2022-12-23T18:09:21.353Z,8.5
2022-12-23T18:11:24.960Z,8.4
2022-12-23T18:13:31.702Z,8.7
2022-12-23T18:15:35.199Z,9
2022-12-23T18:17:38.790Z,8.7
2022-12-23T18:18:46.669Z,8.5
2022-12-23T18:20:45.703Z,8.9
2022-12-23T18:22:49.398Z,8.4
2022-12-23T18:24:58.819Z,8.8
2022-12-23T18:26:59.578Z,8.7
2022-12-23T18:29:03.193Z,8.8
2022-12-23T18:33:10.412Z,9.1
2022-12-23T18:35:13.994Z,8.5
2022-12-23T18:37:19.108Z,8.6
2022-12-23T18:39:22.663Z,9
2022-12-23T18:41:29.318Z,9.3
2022-12-23T18:43:32.915Z,9.3
2022-12-23T18:45:36.528Z,9.1
2022-12-23T18:47:40.103Z,9.2
2022-12-23T18:49:43.725Z,9.2
2022-12-23T18:51:47.356Z,9.5
2022-12-23T18:53:50.923Z,9.6
2022-12-23T18:55:57.574Z,9.7
2022-12-23T18:58:01.172Z,9.9
2022-12-23T19:00:04.806Z,9.6
2022-12-23T19:04:11.960Z,9.7
2022-12-23T19:06:15.661Z,9.8
2022-12-23T19:08:25.890Z,9.7
2022-12-23T19:10:25.867Z,10.3
2022-12-23T19:12:29.459Z,10.1
2022-12-23T19:14:33.012Z,10.4
2022-12-23T19:16:57.287Z,10.5
2022-12-23T19:19:00.930Z,10.2
2022-12-23T19:23:11.112Z,10.1
2022-12-23T19:25:14.638Z,9.7
2022-12-23T19:29:21.844Z,9.8
2022-12-23T19:31:25.477Z,10.3
2022-12-23T19:35:32.569Z,9.9
2022-12-23T19:39:42.840Z,10.7
2022-12-23T19:41:46.345Z,10.6
2022-12-23T19:43:49.958Z,10.5
2022-12-23T19:45:53.572Z,10.3
2022-12-23T19:47:57.121Z,9.9
2022-12-23T19:50:00.696Z,10.6
2022-12-23T19:52:07.332Z,10
2022-12-23T19:54:10.906Z,10.6
2022-12-23T19:56:14.496Z,10.2
2022-12-23T19:58:18.118Z,10.4
2022-12-23T20:00:21.679Z,10.7
2022-12-23T20:02:25.325Z,10.2
2022-12-23T20:04:28.832Z,10.7
2022-12-23T20:06:35.510Z,10.6
2022-12-23T20:08:39.034Z,9.9
2022-12-23T20:10:42.645Z,10.2
2022-12-23T20:17:56.696Z,10.1
2022-12-23T20:20:03.368Z,10.8
2022-12-23T20:22:06.942Z,10.1
2022-12-23T20:24:10.538Z,10.2
2022-12-23T20:26:14.164Z,10.5
2022-12-23T20:28:17.639Z,10.3
2022-12-23T20:30:21.218Z,10.1
2022-12-23T20:32:24.829Z,10
2022-12-23T20:34:36.529Z,10.4
2022-12-23T20:36:35.086Z,10.4
2022-12-23T20:38:38.585Z,10.1
2022-12-23T20:40:42.171Z,10.1
2022-12-23T20:42:45.747Z,10.2
2022-12-23T20:44:49.323Z,10.8
2022-12-23T20:48:59.547Z,10.3
2022-12-23T20:51:03.126Z,10.1
2022-12-23T20:53:06.703Z,10.8
2022-12-23T20:55:10.278Z,10.4
2022-12-23T20:57:13.773Z,10.5
2022-12-23T20:59:17.396Z,10.1
2022-12-23T21:01:20.972Z,10.7
2022-12-23T21:03:27.644Z,10.2
2022-12-23T21:05:31.167Z,10.2
2022-12-23T21:07:34.753Z,10.4
2022-12-23T21:08:38.015Z,10.3
2022-12-23T21:10:41.606Z,10.8
2022-12-23T21:12:45.178Z,10.5
2022-12-23T21:14:48.875Z,10.5
2022-12-23T21:16:55.372Z,10.1
2022-12-23T21:18:58.998Z,10.2
2022-12-23T21:23:06.103Z,10.4
2022-12-23T21:25:09.665Z,10.8
2022-12-23T21:33:27.075Z,10.2
2022-12-23T21:35:30.621Z,10.4
2022-12-23T21:37:34.178Z,10.4
2022-12-23T21:39:37.752Z,10.1
2022-12-23T21:45:51.546Z,10.1
2022-12-23T21:47:55.119Z,10.5
2022-12-23T21:49:58.720Z,10.2
2022-12-23T21:52:02.604Z,10.3
2022-12-23T21:54:06.116Z,10.5
2022-12-23T21:56:09.659Z,10.3
2022-12-23T21:58:13.267Z,10.4
2022-12-23T22:00:19.908Z,10.2
2022-12-23T22:02:23.566Z,10.4
2022-12-23T22:04:27.026Z,10.2
2022-12-23T22:05:30.351Z,10.5
2022-12-23T22:07:33.958Z,10.1
2022-12-23T22:09:37.535Z,10.1
2022-12-23T22:11:41.092Z,10.2
2022-12-23T22:13:47.719Z,10.5
2022-12-23T22:15:51.467Z,10.3
2022-12-23T22:17:54.847Z,10.5
2022-12-23T22:19:58.414Z,10.3
2022-12-23T22:22:01.975Z,10.3
2022-12-23T22:24:05.552Z,10.3
2022-12-23T22:26:09.135Z,10.4
2022-12-23T22:28:15.830Z,9.8
2022-12-23T22:30:19.375Z,9.8
2022-12-23T22:34:26.509Z,10.1
2022-12-23T22:36:30.205Z,10
2022-12-23T22:38:33.714Z,10.1
2022-12-23T22:40:37.257Z,9.8
2022-12-23T22:42:43.923Z,9.9
2022-12-23T22:44:47.542Z,9.9
2022-12-23T22:46:51.068Z,10.2
2022-12-23T22:48:54.674Z,10
2022-12-23T22:50:58.237Z,9.4
2022-12-23T22:53:01.817Z,9.9
2022-12-23T22:55:05.430Z,9.8
2022-12-23T22:57:12.059Z,10.1
2022-12-23T22:59:15.661Z,9.4
2022-12-23T23:01:19.208Z,9.5
2022-12-23T23:03:37.793Z,9.8
2022-12-23T23:05:41.388Z,9.7
2022-12-23T23:07:44.937Z,9.6
2022-12-23T23:09:51.582Z,9.7
2022-12-23T23:11:55.167Z,9.8
2022-12-23T23:13:58.745Z,9.5
2022-12-23T23:16:02.462Z,9.5
2022-12-23T23:18:05.904Z,9.4
2022-12-23T23:20:09.499Z,9.6
2022-12-23T23:22:13.078Z,9.7
2022-12-23T23:24:19.789Z,9.6
2022-12-23T23:26:23.352Z,9.7
2022-12-23T23:28:20.908Z,9.3
2022-12-23T23:30:24.531Z,10
2022-12-23T23:32:28.154Z,9.8
2022-12-23T23:34:31.704Z,9.6
2022-12-23T23:36:35.412Z,9.3
2022-12-23T23:40:45.549Z,9.5
2022-12-23T23:42:49.076Z,9.6
2022-12-23T23:44:52.668Z,9.9
2022-12-23T23:46:56.266Z,9.6
2022-12-23T23:53:10.043Z,9.4
2022-12-23T23:55:13.616Z,9.9
2022-12-23T23:57:17.219Z,9.9
2022-12-23T23:58:20.532Z,9.7
